Time;durP1;ratioP1;P1;durP2;ratioP2;P2;SDS_P1;SDS_P2;PMS_P1;PMS_P2;Temp;Humidity;BMP_temperature;BMP_pressure;BME280_temperature;BME280_humidity;BME280_pressure;Samples;Min_cycle;Max_cycle;Signal;HPM_P1;HPM_P2
2022/07/14 00:01:52;;;;;;;4.68;3.03;;;17.90;99.90;;;;;;5033015;28;20024;-77
2022/07/14 00:04:18;;;;;;;4.20;2.85;;;17.90;99.90;;;;;;5015103;28;20033;-77
2022/07/14 00:06:44;;;;;;;4.68;3.40;;;17.80;99.90;;;;;;5033400;28;20083;-77
2022/07/14 00:09:09;;;;;;;3.65;3.30;;;17.80;99.90;;;;;;5033123;28;20133;-77
2022/07/14 00:11:36;;;;;;;3.47;3.00;;;17.80;99.90;;;;;;5015422;28;20029;-77
2022/07/14 00:14:01;;;;;;;5.20;2.83;;;17.80;99.90;;;;;;5015181;28;20033;-77
2022/07/14 00:16:27;;;;;;;4.82;3.03;;;17.80;99.90;;;;;;5057739;22;20054;-80
2022/07/14 00:18:53;;;;;;;6.75;3.55;;;17.80;99.90;;;;;;5056236;28;20108;-78
2022/07/14 00:21:19;;;;;;;5.10;3.30;;;17.70;99.90;;;;;;5053772;28;20024;-78
2022/07/14 00:23:46;;;;;;;5.15;3.28;;;17.70;99.90;;;;;;5053768;28;20025;-78
2022/07/14 00:26:13;;;;;;;5.38;3.38;;;17.60;99.90;;;;;;5053176;28;20045;-78
2022/07/14 00:28:39;;;;;;;3.90;3.25;;;17.60;99.90;;;;;;5052171;28;20032;-77
2022/07/14 00:31:09;;;;;;;4.32;3.70;;;17.60;99.90;;;;;;5052607;28;20455;-78
2022/07/14 00:33:36;;;;;;;3.77;3.30;;;17.50;99.90;;;;;;5052202;28;20092;-78
2022/07/14 00:36:02;;;;;;;5.95;3.72;;;17.50;99.90;;;;;;5051760;28;20090;-78
2022/07/14 00:38:28;;;;;;;6.53;3.30;;;17.50;99.90;;;;;;5052501;28;20017;-79
2022/07/14 00:40:54;;;;;;;5.22;3.10;;;17.40;99.90;;;;;;5051657;28;20021;-79
2022/07/14 00:43:20;;;;;;;4.53;3.78;;;17.40;99.90;;;;;;5052171;28;20021;-79
2022/07/14 00:45:45;;;;;;;4.40;3.40;;;17.30;99.90;;;;;;5047638;28;20021;-79
2022/07/14 00:48:14;;;;;;;4.72;3.40;;;17.20;99.90;;;;;;5051528;28;20078;-79
2022/07/14 00:50:44;;;;;;;3.97;3.58;;;17.20;99.90;;;;;;5052056;28;20070;-78
2022/07/14 00:53:10;;;;;;;4.38;3.53;;;17.20;99.90;;;;;;5051927;28;20009;-79
2022/07/14 00:55:39;;;;;;;5.03;4.10;;;17.10;99.90;;;;;;5038095;28;20070;-79
2022/07/14 00:58:05;;;;;;;4.47;3.47;;;17.10;99.90;;;;;;5051871;28;20051;-79
2022/07/14 01:00:31;;;;;;;5.72;3.80;;;17.10;99.90;;;;;;5034100;28;20021;-79
2022/07/14 01:02:57;;;;;;;5.32;3.85;;;17.10;99.90;;;;;;5051994;28;20021;-79
2022/07/14 01:05:23;;;;;;;7.25;3.22;;;17.00;99.90;;;;;;5051688;28;20020;-78
2022/07/14 01:07:49;;;;;;;5.18;3.40;;;17.00;99.90;;;;;;5051829;28;20044;-79
2022/07/14 01:10:16;;;;;;;5.65;3.70;;;17.00;99.90;;;;;;5052236;28;20075;-79
2022/07/14 01:12:46;;;;;;;7.10;3.78;;;16.90;99.90;;;;;;5051754;28;20013;-79
2022/07/14 01:15:14;;;;;;;7.43;3.92;;;16.80;99.90;;;;;;5051362;28;20025;-79
2022/07/14 01:17:40;;;;;;;8.07;3.90;;;16.70;99.90;;;;;;5052009;28;20071;-79
2022/07/14 01:20:07;;;;;;;8.38;4.25;;;16.70;99.90;;;;;;5051696;28;20017;-79
2022/07/14 01:22:33;;;;;;;5.70;3.80;;;16.60;99.90;;;;;;5033098;28;20021;-79
2022/07/14 01:24:58;;;;;;;8.32;3.95;;;16.70;99.90;;;;;;5051400;28;20021;-78
2022/07/14 01:27:24;;;;;;;6.93;3.92;;;16.70;99.90;;;;;;5051807;28;20020;-79
2022/07/14 01:29:50;;;;;;;8.15;3.80;;;16.60;99.90;;;;;;5051368;28;20033;-79
2022/07/14 01:32:16;;;;;;;5.80;4.05;;;16.60;99.90;;;;;;5051130;28;20377;-79
2022/07/14 01:34:42;;;;;;;5.93;4.30;;;16.60;99.90;;;;;;5037940;28;20036;-79
2022/07/14 01:37:08;;;;;;;5.35;4.40;;;16.60;99.90;;;;;;5050946;28;20427;-79
2022/07/14 01:39:34;;;;;;;7.43;5.05;;;16.60;99.90;;;;;;5051467;28;20056;-79
2022/07/14 01:41:59;;;;;;;6.07;4.75;;;16.60;99.90;;;;;;5051569;28;20491;-78
2022/07/14 01:44:25;;;;;;;9.23;4.60;;;16.60;99.90;;;;;;5051090;28;20118;-79
2022/07/14 01:46:51;;;;;;;6.78;4.03;;;16.50;99.90;;;;;;5045184;28;20076;-79
2022/07/14 01:49:17;;;;;;;10.65;5.30;;;16.50;99.90;;;;;;5051643;28;20185;-78
2022/07/14 01:51:42;;;;;;;6.20;4.82;;;16.40;99.90;;;;;;5051021;28;20033;-78
2022/07/14 01:54:08;;;;;;;8.65;4.72;;;16.40;99.90;;;;;;5050849;28;20025;-79
2022/07/14 01:56:41;;;;;;;7.10;5.00;;;16.30;99.90;;;;;;5050775;28;20032;-79
2022/07/14 01:59:07;;;;;;;6.43;4.22;;;16.20;99.90;;;;;;5032727;28;20112;-79
2022/07/14 02:01:39;;;;;;;7.03;4.60;;;16.10;99.90;;;;;;5050471;28;20021;-79
2022/07/14 02:04:08;;;;;;;4.97;4.47;;;16.00;99.90;;;;;;5050880;28;20074;-79
2022/07/14 02:06:34;;;;;;;5.03;4.05;;;16.00;99.90;;;;;;5037710;28;20036;-79
2022/07/14 02:09:00;;;;;;;6.45;4.38;;;15.90;99.90;;;;;;5050540;28;20028;-79
2022/07/14 02:14:10;;;;;;;7.00;4.18;;;15.80;99.90;;;;;;5050806;28;20103;-78
2022/07/14 02:16:36;;;;;;;9.48;4.32;;;15.70;99.90;;;;;;5047176;28;20091;-79
2022/07/14 02:19:03;;;;;;;7.50;4.30;;;15.70;99.90;;;;;;5050362;28;20020;-79
2022/07/14 02:21:29;;;;;;;9.27;4.13;;;15.70;99.90;;;;;;5032050;28;20021;-79
2022/07/14 02:23:56;;;;;;;8.38;4.15;;;15.70;99.90;;;;;;5050772;28;20048;-79
2022/07/14 02:26:23;;;;;;;5.65;4.40;;;15.60;99.90;;;;;;5050057;28;20062;-79
2022/07/14 02:28:49;;;;;;;6.60;4.50;;;15.50;99.90;;;;;;5050134;28;21172;-79
2022/07/14 02:31:15;;;;;;;11.85;5.03;;;15.50;99.90;;;;;;5050494;28;20083;-79
2022/07/14 02:33:41;;;;;;;8.55;5.93;;;15.50;99.90;;;;;;5050343;28;20082;-79
2022/07/14 02:36:07;;;;;;;8.90;6.05;;;15.50;99.90;;;;;;5050323;28;20029;-79
2022/07/14 02:38:33;;;;;;;7.97;5.55;;;15.60;99.90;;;;;;5050801;28;20444;-78
2022/07/14 02:40:59;;;;;;;8.80;5.78;;;15.60;99.90;;;;;;5050232;28;20063;-78
2022/07/14 02:43:26;;;;;;;9.43;6.32;;;15.70;99.90;;;;;;5049447;28;20392;-79
2022/07/14 02:45:52;;;;;;;10.57;6.20;;;15.70;99.90;;;;;;5045457;28;20022;-79
2022/07/14 02:48:18;;;;;;;12.90;7.07;;;15.70;99.90;;;;;;5032428;28;20094;-79
2022/07/14 02:50:43;;;;;;;8.52;6.03;;;15.70;99.90;;;;;;5050015;28;20029;-79
2022/07/14 02:53:09;;;;;;;11.43;6.28;;;15.60;99.90;;;;;;5032167;28;20067;-78
2022/07/14 02:55:36;;;;;;;8.57;5.85;;;15.60;99.90;;;;;;5050401;28;20025;-79
2022/07/14 02:58:03;;;;;;;9.60;6.22;;;15.50;99.90;;;;;;5050050;28;20112;-79
2022/07/14 03:00:30;;;;;;;10.15;5.82;;;15.50;99.90;;;;;;5049753;28;20017;-79
2022/07/14 03:02:56;;;;;;;12.30;6.05;;;15.50;99.90;;;;;;5050067;28;20036;-78
2022/07/14 03:05:23;;;;;;;8.45;5.25;;;15.50;99.90;;;;;;5049486;28;20048;-78
2022/07/14 03:07:49;;;;;;;11.32;6.15;;;15.50;99.90;;;;;;5049157;28;20021;-78
2022/07/14 03:10:15;;;;;;;10.63;5.65;;;15.50;99.90;;;;;;5032417;28;20358;-78
2022/07/14 03:12:40;;;;;;;10.93;5.65;;;15.50;99.90;;;;;;5049676;28;20382;-79
2022/07/14 03:15:09;;;;;;;14.43;5.32;;;15.60;99.90;;;;;;5049729;28;20029;-79
2022/07/14 03:17:35;;;;;;;9.90;5.30;;;15.60;99.90;;;;;;5046641;28;20025;-79
2022/07/14 03:20:00;;;;;;;12.35;6.05;;;15.60;99.90;;;;;;5049890;28;20100;-78
2022/07/14 03:22:27;;;;;;;11.90;6.18;;;15.60;99.90;;;;;;5049586;28;20017;-78
2022/07/14 03:24:52;;;;;;;13.02;6.07;;;15.80;99.90;;;;;;5050185;28;20028;-79
2022/07/14 03:27:18;;;;;;;11.88;6.20;;;15.70;99.90;;;;;;5049225;28;20021;-78
2022/07/14 03:29:44;;;;;;;14.50;7.03;;;15.70;99.90;;;;;;5049415;28;20166;-78
2022/07/14 03:32:10;;;;;;;10.65;6.05;;;15.70;99.90;;;;;;5049153;28;20103;-79
2022/07/14 03:34:35;;;;;;;15.15;7.38;;;15.70;99.90;;;;;;5049442;28;20068;-78
2022/07/14 03:37:02;;;;;;;12.32;6.50;;;15.70;99.90;;;;;;5049426;28;20516;-78
2022/07/14 03:39:27;;;;;;;11.90;6.88;;;15.70;99.90;;;;;;5049890;28;20025;-78
2022/07/14 03:41:53;;;;;;;11.85;6.15;;;15.70;99.90;;;;;;5031540;28;20027;-78
2022/07/14 03:44:19;;;;;;;14.90;6.80;;;15.70;99.90;;;;;;5049262;28;20009;-79
2022/07/14 03:46:45;;;;;;;12.38;6.68;;;15.60;99.90;;;;;;5045976;28;20036;-79
2022/07/14 03:49:11;;;;;;;10.38;6.70;;;15.50;99.90;;;;;;5049209;28;20481;-78
2022/07/14 03:51:43;;;;;;;11.43;7.70;;;15.50;99.90;;;;;;5049061;28;20018;-78
2022/07/14 03:54:10;;;;;;;9.68;6.25;;;15.50;99.90;;;;;;5050678;28;20021;-79
2022/07/14 03:56:37;;;;;;;11.68;6.22;;;15.40;99.90;;;;;;5053256;28;20024;-78
2022/07/14 03:59:04;;;;;;;11.63;6.22;;;15.40;99.90;;;;;;5052888;28;20099;-78
2022/07/14 04:01:30;;;;;;;16.35;7.88;;;15.30;99.90;;;;;;5052809;28;20017;-78
2022/07/14 04:03:56;;;;;;;21.48;7.43;;;15.40;99.90;;;;;;5053696;28;20088;-78
2022/07/14 04:06:22;;;;;;;14.90;6.63;;;15.40;99.90;;;;;;5053036;28;20048;-78
2022/07/14 04:08:47;;;;;;;14.10;6.75;;;15.40;99.90;;;;;;5052856;28;20060;-78
2022/07/14 04:11:14;;;;;;;10.43;6.40;;;15.40;99.90;;;;;;5049972;28;20021;-78
2022/07/14 04:13:40;;;;;;;20.90;8.95;;;15.40;99.90;;;;;;5051938;28;20083;-78
2022/07/14 04:16:06;;;;;;;10.30;6.65;;;15.40;99.90;;;;;;5053102;28;20029;-78
2022/07/14 04:18:32;;;;;;;14.27;7.30;;;15.50;99.90;;;;;;5034908;28;20528;-78
2022/07/14 04:20:57;;;;;;;11.10;6.88;;;15.50;99.90;;;;;;5052783;28;20108;-78
2022/07/14 04:23:23;;;;;;;14.77;6.65;;;15.50;99.90;;;;;;5052469;28;20048;-78
2022/07/14 04:25:49;;;;;;;15.90;6.57;;;15.50;99.90;;;;;;5053049;28;20021;-78
2022/07/14 04:28:15;;;;;;;11.77;6.82;;;15.50;99.90;;;;;;5052156;28;20040;-78
2022/07/14 04:30:41;;;;;;;12.38;8.02;;;15.40;99.90;;;;;;5052726;28;20025;-78
2022/07/14 04:33:09;;;;;;;14.25;8.05;;;15.50;99.90;;;;;;5052641;28;20028;-78
2022/07/14 04:35:36;;;;;;;15.88;6.97;;;15.50;99.90;;;;;;5039007;28;20114;-79
2022/07/14 04:38:02;;;;;;;15.45;6.95;;;15.50;99.90;;;;;;5052583;28;20069;-78
2022/07/14 04:40:29;;;;;;;11.85;6.95;;;15.40;99.90;;;;;;5052192;28;20025;-78
2022/07/14 04:42:55;;;;;;;13.73;7.80;;;15.40;99.90;;;;;;5050318;28;20013;-78
2022/07/14 04:45:22;;;;;;;13.48;7.00;;;15.30;99.90;;;;;;5051841;28;20301;-78
2022/07/14 04:47:49;;;;;;;10.30;6.50;;;15.30;99.90;;;;;;5051692;28;20120;-78
2022/07/14 04:52:59;;;;;;;15.93;7.13;;;15.40;99.90;;;;;;5039963;28;20503;-78
2022/07/14 04:55:25;;;;;;;12.23;7.15;;;15.40;99.90;;;;;;5052018;28;20021;-78
2022/07/14 04:57:50;;;;;;;13.85;7.45;;;15.50;99.90;;;;;;5051365;28;20100;-78
2022/07/14 05:00:16;;;;;;;15.73;7.85;;;15.60;99.90;;;;;;5051904;28;20021;-79
2022/07/14 05:02:42;;;;;;;13.02;7.03;;;15.70;99.90;;;;;;5051392;28;20477;-79
2022/07/14 05:05:08;;;;;;;14.45;6.88;;;15.70;99.90;;;;;;5033033;28;20079;-78
2022/07/14 05:07:34;;;;;;;17.15;7.50;;;15.80;99.90;;;;;;5051792;28;20096;-78
2022/07/14 05:10:00;;;;;;;12.45;6.88;;;15.90;99.90;;;;;;5051787;28;20066;-79
2022/07/14 05:12:26;;;;;;;16.67;7.60;;;16.00;99.90;;;;;;5049577;28;20095;-78
2022/07/14 05:14:52;;;;;;;13.32;7.75;;;16.00;99.90;;;;;;5052171;28;20036;-78
2022/07/14 05:17:18;;;;;;;12.60;6.65;;;16.10;99.90;;;;;;5069186;22;20048;-77
2022/07/14 05:19:46;;;;;;;12.88;6.65;;;16.00;99.90;;;;;;5052648;28;20036;-77
2022/07/14 05:22:12;;;;;;;13.85;7.40;;;16.10;99.90;;;;;;5052703;28;20081;-77
2022/07/14 05:24:38;;;;;;;14.13;6.63;;;16.10;99.90;;;;;;5059559;28;20017;-77
2022/07/14 05:27:04;;;;;;;15.98;6.88;;;16.10;99.90;;;;;;5051832;28;20116;-77
2022/07/14 05:29:30;;;;;;;11.20;6.35;;;16.10;99.90;;;;;;5051379;28;20104;-78
2022/07/14 05:31:58;;;;;;;13.07;7.22;;;16.20;99.90;;;;;;5051491;28;20484;-78
2022/07/14 05:34:24;;;;;;;10.27;6.10;;;16.20;99.90;;;;;;5051203;28;20064;-77
2022/07/14 05:36:49;;;;;;;8.93;5.35;;;16.30;99.90;;;;;;5033247;28;20048;-78
2022/07/14 05:39:15;;;;;;;11.05;5.80;;;16.40;99.90;;;;;;5051242;28;20028;-78
2022/07/14 05:41:41;;;;;;;12.95;5.68;;;16.40;99.90;;;;;;5050312;28;20027;-77
2022/07/14 05:44:07;;;;;;;12.70;5.78;;;16.50;99.90;;;;;;5050660;28;20059;-78
2022/07/14 05:46:33;;;;;;;12.57;5.65;;;16.50;99.90;;;;;;5048674;28;20029;-77
2022/07/14 05:48:59;;;;;;;10.65;4.72;;;16.50;99.90;;;;;;5051017;28;20381;-78
2022/07/14 05:51:25;;;;;;;8.98;5.03;;;16.60;99.90;;;;;;5051096;28;20209;-78
2022/07/14 05:53:50;;;;;;;14.00;6.03;;;16.60;99.90;;;;;;5051550;28;20071;-78
2022/07/14 05:56:17;;;;;;;15.15;5.95;;;16.60;99.90;;;;;;5051221;28;20104;-78
2022/07/14 05:58:44;;;;;;;11.30;5.53;;;16.60;99.90;;;;;;5050721;28;20640;-78
2022/07/14 06:01:10;;;;;;;10.73;4.95;;;16.70;99.90;;;;;;5051202;28;20051;-78
2022/07/14 06:03:36;;;;;;;9.27;5.07;;;16.70;99.90;;;;;;5033107;28;20025;-77
2022/07/14 06:06:05;;;;;;;8.15;5.10;;;16.80;99.90;;;;;;5050667;28;20024;-78
2022/07/14 06:08:31;;;;;;;10.93;5.32;;;16.90;99.90;;;;;;5051141;28;20032;-77
2022/07/14 06:10:57;;;;;;;10.05;5.68;;;16.90;99.90;;;;;;5050324;28;20029;-78
2022/07/14 06:13:24;;;;;;;8.60;5.43;;;16.90;99.90;;;;;;5050175;28;20027;-78
2022/07/14 06:15:50;;;;;;;9.70;5.28;;;17.00;99.90;;;;;;5063897;22;20021;-80
2022/07/14 06:18:16;;;;;;;12.52;4.90;;;17.00;99.90;;;;;;5052427;28;20037;-78
2022/07/14 06:20:42;;;;;;;11.77;5.47;;;17.20;99.90;;;;;;5051480;28;20043;-78
2022/07/14 06:23:11;;;;;;;13.93;5.22;;;17.30;99.90;;;;;;5051661;28;20477;-79
2022/07/14 06:25:39;;;;;;;10.73;4.78;;;17.50;99.90;;;;;;5053449;28;20445;-79
2022/07/14 06:28:06;;;;;;;13.25;5.53;;;17.80;99.90;;;;;;5040322;28;20036;-78
2022/07/14 06:30:32;;;;;;;10.88;5.00;;;18.00;99.90;;;;;;5029393;28;20099;-78
2022/07/14 06:32:58;;;;;;;11.70;4.70;;;18.40;99.90;;;;;;5048056;28;20143;-78
2022/07/14 06:35:24;;;;;;;13.15;5.03;;;18.50;99.90;;;;;;5013335;28;20881;-79
2022/07/14 06:37:54;;;;;;;8.57;4.55;;;18.80;99.90;;;;;;5030159;28;20022;-79
2022/07/14 06:40:20;;;;;;;9.25;3.80;;;19.00;99.90;;;;;;5027912;28;20083;-79
2022/07/14 06:42:46;;;;;;;10.07;3.55;;;19.10;99.90;;;;;;5041922;28;20370;-79
2022/07/14 06:45:12;;;;;;;9.15;4.10;;;19.20;99.90;;;;;;5049778;28;20074;-79
2022/07/14 06:47:38;;;;;;;8.60;3.47;;;19.40;99.90;;;;;;5047136;28;20048;-79
2022/07/14 06:50:06;;;;;;;8.00;4.32;;;19.40;99.90;;;;;;5045873;28;20075;-80
2022/07/14 06:52:33;;;;;;;8.32;3.53;;;19.40;99.90;;;;;;5044742;28;20040;-79
2022/07/14 06:55:00;;;;;;;12.10;3.78;;;19.50;99.90;;;;;;5050260;28;20027;-77
2022/07/14 06:57:26;;;;;;;7.70;3.90;;;19.50;99.90;;;;;;5024567;28;20026;-79
2022/07/14 06:59:51;;;;;;;8.98;4.13;;;19.50;99.90;;;;;;5040719;28;20071;-79
2022/07/14 07:02:19;;;;;;;7.95;3.63;;;19.40;99.90;;;;;;5042040;28;20026;-80
2022/07/14 07:04:46;;;;;;;7.25;3.63;;;19.30;99.90;;;;;;5036500;28;20021;-80
2022/07/14 07:07:12;;;;;;;6.82;3.80;;;19.20;99.90;;;;;;5049934;28;20025;-79
2022/07/14 07:09:38;;;;;;;11.43;4.13;;;19.10;99.90;;;;;;5049581;28;20031;-78
2022/07/14 07:12:04;;;;;;;6.75;3.35;;;19.10;99.90;;;;;;5049903;28;20489;-78
2022/07/14 07:14:30;;;;;;;10.20;4.10;;;19.10;99.90;;;;;;5049408;28;20037;-79
2022/07/14 07:16:56;;;;;;;9.75;3.72;;;19.10;99.90;;;;;;5072468;22;20111;-77
2022/07/14 07:19:33;;;;;;;6.93;3.88;;;19.20;99.90;;;;;;5050050;28;20017;-77
2022/07/14 07:21:59;;;;;;;7.65;3.88;;;19.30;99.90;;;;;;5049749;28;20074;-78
2022/07/14 07:24:25;;;;;;;8.38;3.95;;;19.40;99.90;;;;;;5050985;28;20028;-78
2022/07/14 07:26:51;;;;;;;9.68;4.45;;;19.60;99.90;;;;;;5050058;28;20017;-78
2022/07/14 07:29:17;;;;;;;8.40;4.53;;;19.70;99.90;;;;;;5051549;28;20389;-78
2022/07/14 07:31:43;;;;;;;12.63;4.18;;;19.80;99.90;;;;;;5048804;28;20021;-78
2022/07/14 07:34:09;;;;;;;4.20;3.28;;;19.90;99.90;;;;;;5046522;28;20664;-79
2022/07/14 07:36:35;;;;;;;9.73;4.13;;;19.90;99.90;;;;;;5052562;28;20104;-78
2022/07/14 07:39:01;;;;;;;8.85;3.05;;;19.90;99.90;;;;;;5052443;28;20385;-79
2022/07/14 07:41:27;;;;;;;5.85;3.85;;;20.00;99.90;;;;;;5052355;28;20512;-79
2022/07/14 07:43:53;;;;;;;9.65;3.88;;;20.10;99.90;;;;;;5053527;28;20056;-79
2022/07/14 07:46:18;;;;;;;7.53;3.58;;;20.20;99.90;;;;;;5050721;28;20016;-79
2022/07/14 07:48:44;;;;;;;6.82;3.03;;;20.50;99.90;;;;;;5053647;28;20033;-79
2022/07/14 07:51:10;;;;;;;6.80;3.40;;;20.50;99.90;;;;;;5054003;28;20046;-79
2022/07/14 07:53:36;;;;;;;12.27;3.08;;;20.50;99.90;;;;;;5053654;28;20021;-79
2022/07/14 07:56:02;;;;;;;5.15;2.88;;;20.60;99.90;;;;;;5053671;28;20033;-79
2022/07/14 07:58:28;;;;;;;6.88;3.03;;;20.60;99.90;;;;;;5053914;28;20072;-79
2022/07/14 08:00:53;;;;;;;6.22;3.53;;;20.60;99.90;;;;;;5053553;28;20024;-79
2022/07/14 08:03:19;;;;;;;7.68;3.42;;;20.70;99.90;;;;;;5053522;28;20025;-79
2022/07/14 08:05:45;;;;;;;8.45;3.08;;;20.70;99.90;;;;;;5053796;28;20025;-79
2022/07/14 08:08:11;;;;;;;4.85;2.97;;;20.90;99.90;;;;;;5053449;28;20436;-79
2022/07/14 08:10:38;;;;;;;5.70;2.85;;;21.10;99.90;;;;;;5053339;28;20163;-79
2022/07/14 08:13:04;;;;;;;7.57;4.10;;;21.20;99.90;;;;;;5053737;28;20104;-79
2022/07/14 08:15:30;;;;;;;6.60;3.00;;;21.40;99.90;;;;;;5053506;28;20426;-79
2022/07/14 08:17:56;;;;;;;8.60;3.70;;;21.60;99.90;;;;;;5046473;22;20044;-78
2022/07/14 08:20:22;;;;;;;7.75;3.50;;;21.70;99.90;;;;;;5034450;28;20539;-80
2022/07/14 08:22:48;;;;;;;6.57;3.58;;;21.80;99.90;;;;;;5034169;28;20048;-79
2022/07/14 08:25:14;;;;;;;6.80;3.75;;;21.90;99.90;;;;;;5034261;28;20029;-80
2022/07/14 08:27:39;;;;;;;7.60;4.07;;;21.90;99.90;;;;;;5033221;28;20025;-79
2022/07/14 08:30:06;;;;;;;6.95;4.07;;;21.90;99.90;;;;;;5032931;28;20036;-79
2022/07/14 08:32:36;;;;;;;8.38;4.10;;;21.90;99.90;;;;;;5032635;28;20045;-79
2022/07/14 08:35:04;;;;;;;12.27;4.15;;;21.90;99.90;;;;;;5032893;28;20025;-78
2022/07/14 08:37:30;;;;;;;9.25;3.30;;;22.00;99.90;;;;;;5032965;28;20105;-79
2022/07/14 08:39:56;;;;;;;6.57;3.22;;;22.40;99.90;;;;;;5031426;28;20093;-79
2022/07/14 08:42:22;;;;;;;6.35;3.60;;;22.70;99.90;;;;;;5032084;28;20037;-80
2022/07/14 08:44:48;;;;;;;5.90;2.85;;;23.40;99.90;;;;;;5033171;28;20072;-79
2022/07/14 08:47:16;;;;;;;11.50;3.05;;;24.30;98.10;;;;;;5032217;28;20021;-80
2022/07/14 08:49:43;;;;;;;5.63;2.72;;;25.20;88.30;;;;;;5032676;28;20037;-79
2022/07/14 08:52:09;;;;;;;5.28;2.30;;;25.50;80.40;;;;;;5032658;28;20014;-79
2022/07/14 08:54:36;;;;;;;4.40;2.42;;;25.40;67.80;;;;;;5032375;28;20018;-79
2022/07/14 08:57:02;;;;;;;6.40;2.10;;;25.60;72.70;;;;;;5032435;28;20021;-79
2022/07/14 08:59:28;;;;;;;7.43;2.60;;;25.50;67.90;;;;;;5033054;28;20014;-79
2022/07/14 09:01:56;;;;;;;5.18;2.40;;;25.70;66.20;;;;;;5032075;28;20474;-78
2022/07/14 09:04:21;;;;;;;4.35;2.00;;;26.00;64.20;;;;;;5032286;28;20091;-79
2022/07/14 09:06:49;;;;;;;4.05;2.05;;;26.20;64.40;;;;;;5032473;28;20022;-79
2022/07/14 09:09:20;;;;;;;3.40;1.70;;;27.00;64.50;;;;;;5031001;28;20378;-79
2022/07/14 09:12:00;;;;;;;5.97;1.80;;;28.10;58.40;;;;;;5032211;28;20036;-79
2022/07/14 09:14:28;;;;;;;4.05;2.08;;;29.00;54.70;;;;;;5032331;28;20112;-80
2022/07/14 09:17:14;;;;;;;2.95;1.65;;;29.30;51.10;;;;;;5051513;22;20038;-80
2022/07/14 09:20:03;;;;;;;4.60;1.73;;;29.70;48.90;;;;;;4995702;28;20057;-78
2022/07/14 09:22:32;;;;;;;4.00;1.50;;;30.20;48.10;;;;;;5008388;28;20068;-79
2022/07/14 09:24:58;;;;;;;5.43;1.63;;;30.70;48.40;;;;;;5013616;28;20088;-80
2022/07/14 09:27:25;;;;;;;5.63;1.77;;;31.30;46.60;;;;;;5012552;28;20014;-80
2022/07/14 09:29:55;;;;;;;5.10;1.95;;;31.70;46.70;;;;;;5012382;28;20021;-80
2022/07/14 09:32:46;;;;;;;2.45;1.20;;;31.60;42.70;;;;;;5012108;28;20048;-80
2022/07/14 09:35:15;;;;;;;4.38;1.85;;;32.10;41.10;;;;;;5011958;28;20021;-80
2022/07/14 09:37:42;;;;;;;2.05;1.40;;;32.80;42.40;;;;;;5012456;28;20435;-80
2022/07/14 09:40:20;;;;;;;5.03;1.70;;;32.80;39.40;;;;;;5012066;28;20030;-80
2022/07/14 09:42:53;;;;;;;3.20;1.13;;;32.70;38.50;;;;;;5011823;28;20018;-80
2022/07/14 09:45:23;;;;;;;1.52;1.15;;;32.40;39.80;;;;;;5011911;28;20041;-81
2022/07/14 09:48:02;;;;;;;3.25;1.23;;;33.00;37.80;;;;;;5010283;28;20478;-80
2022/07/14 09:50:51;;;;;;;3.08;1.98;;;32.60;41.40;;;;;;5012158;28;20029;-81
2022/07/14 09:53:19;;;;;;;2.50;1.17;;;33.80;38.00;;;;;;5003015;28;20032;-78
2022/07/14 09:55:56;;;;;;;1.83;0.98;;;34.20;34.60;;;;;;5012101;28;20072;-81
2022/07/14 09:58:28;;;;;;;2.92;1.02;;;35.10;34.50;;;;;;5011713;28;20025;-81
2022/07/14 10:01:04;;;;;;;3.67;1.23;;;35.50;33.40;;;;;;5011498;28;20030;-81
2022/07/14 10:03:33;;;;;;;2.60;0.93;;;35.50;31.90;;;;;;4993609;28;20022;-81
2022/07/14 10:06:02;;;;;;;1.83;0.80;;;35.50;33.20;;;;;;5011270;28;20030;-81
2022/07/14 10:08:33;;;;;;;1.95;0.80;;;35.70;29.20;;;;;;5011942;28;20466;-81
2022/07/14 10:11:00;;;;;;;2.28;0.85;;;35.70;30.10;;;;;;5011421;28;20064;-81
2022/07/14 10:13:27;;;;;;;3.30;0.90;;;34.50;32.10;;;;;;4993807;28;20533;-79
2022/07/14 10:18:26;;;;;;;2.35;0.82;;;34.30;31.30;;;;;;5048278;28;20497;-78
2022/07/14 10:20:56;;;;;;;3.15;0.77;;;35.10;29.60;;;;;;5052277;28;20033;-78
2022/07/14 10:23:24;;;;;;;3.03;0.73;;;33.90;30.60;;;;;;5051737;28;20045;-78
2022/07/14 10:25:54;;;;;;;2.10;0.70;;;34.40;32.10;;;;;;5051872;28;20036;-78
2022/07/14 10:28:21;;;;;;;1.58;0.65;;;34.50;29.70;;;;;;5032109;28;20025;-78
2022/07/14 10:31:15;;;;;;;2.58;0.75;;;33.80;29.40;;;;;;5032113;28;20136;-78
2022/07/14 10:33:59;;;;;;;3.30;0.80;;;34.30;29.10;;;;;;5031741;28;20014;-78
2022/07/14 10:36:57;;;;;;;3.60;0.77;;;33.70;29.10;;;;;;5031890;28;20072;-78
2022/07/14 10:39:47;;;;;;;3.88;1.00;;;33.70;31.30;;;;;;5009913;28;20042;-78
2022/07/14 10:42:22;;;;;;;2.63;0.60;;;33.20;28.20;;;;;;5026587;28;20549;-78
2022/07/14 10:44:50;;;;;;;2.67;0.75;;;34.00;30.10;;;;;;5025217;28;20063;-78
2022/07/14 10:47:18;;;;;;;3.38;0.65;;;34.60;29.40;;;;;;5031328;28;20040;-78
2022/07/14 10:50:00;;;;;;;2.53;0.45;;;34.90;28.10;;;;;;5031251;28;20466;-78
2022/07/14 10:52:27;;;;;;;1.35;0.50;;;35.80;28.30;;;;;;5031936;28;20497;-79
2022/07/14 10:55:10;;;;;;;2.15;1.02;;;35.90;26.90;;;;;;5029706;28;20022;-78
2022/07/14 10:57:36;;;;;;;2.30;0.45;;;36.30;27.30;;;;;;5025491;28;20025;-79
2022/07/14 11:00:03;;;;;;;2.58;0.50;;;36.20;27.90;;;;;;5031756;28;20092;-78
2022/07/14 11:02:31;;;;;;;1.58;0.77;;;36.40;27.60;;;;;;5031432;28;20482;-79
2022/07/14 11:04:59;;;;;;;1.77;0.50;;;36.60;26.10;;;;;;5013010;28;20025;-79
2022/07/14 11:07:40;;;;;;;0.80;0.60;;;37.30;26.70;;;;;;5031642;28;20017;-79
2022/07/14 11:10:14;;;;;;;2.00;0.50;;;37.30;25.70;;;;;;5031198;28;20052;-79
2022/07/14 11:13:05;;;;;;;2.35;0.60;;;37.70;25.10;;;;;;5031604;28;20026;-79
2022/07/14 11:15:50;;;;;;;2.92;0.80;;;37.80;24.50;;;;;;5031519;28;20540;-78
2022/07/14 11:18:21;;;;;;;2.50;0.50;;;37.80;24.50;;;;;;5048044;23;20068;-82
2022/07/14 11:21:01;;;;;;;1.38;0.60;;;38.00;24.90;;;;;;5045898;28;20036;-82
2022/07/14 11:23:30;;;;;;;1.52;0.63;;;38.30;24.70;;;;;;5030066;28;20013;-82
2022/07/14 11:25:57;;;;;;;1.58;0.50;;;38.80;24.80;;;;;;5030588;28;20029;-81
2022/07/14 11:28:38;;;;;;;1.20;0.35;;;39.40;23.40;;;;;;5030152;28;20014;-81
2022/07/14 11:31:17;;;;;;;;;;;39.50;25.30;;;;;;5030405;28;20093;-82
2022/07/14 11:36:34;;;;;;;1.60;0.50;;;39.80;24.20;;;;;;5030222;28;20068;-81
2022/07/14 11:39:15;;;;;;;3.45;0.80;;;39.90;23.80;;;;;;5029970;28;20494;-80
2022/07/14 11:41:45;;;;;;;;;;;39.90;24.30;;;;;;5030365;28;20029;-79
2022/07/14 11:44:35;;;;;;;1.95;0.90;;;40.90;22.90;;;;;;5029795;28;20361;-82
2022/07/14 11:47:03;;;;;;;0.73;0.30;;;41.00;23.00;;;;;;5029153;28;20033;-82
2022/07/14 11:49:31;;;;;;;2.65;0.47;;;41.70;22.70;;;;;;5029784;28;20028;-79
2022/07/14 11:51:58;;;;;;;3.08;0.60;;;41.30;22.90;;;;;;5029893;28;20032;-79
2022/07/14 11:54:25;;;;;;;0.52;0.47;;;41.30;22.40;;;;;;5029875;28;20010;-80
2022/07/14 11:57:04;;;;;;;3.08;0.73;;;42.20;22.00;;;;;;5029938;28;20017;-79
2022/07/14 11:59:30;;;;;;;2.05;0.70;;;42.00;21.10;;;;;;5019270;28;20029;-81
2022/07/14 12:02:14;;;;;;;2.35;0.55;;;41.70;21.60;;;;;;5029454;28;20009;-82
2022/07/14 12:04:55;;;;;;;3.42;0.50;;;41.70;20.40;;;;;;5029629;28;20021;-82
2022/07/14 12:07:47;;;;;;;3.40;0.70;;;42.00;22.50;;;;;;5029994;28;20022;-80
2022/07/14 12:10:15;;;;;;;2.38;0.57;;;40.90;20.10;;;;;;5016362;28;20017;-82
2022/07/14 12:12:43;;;;;;;4.82;0.70;;;38.70;22.00;;;;;;5029610;28;20034;-82
2022/07/14 12:15:09;;;;;;;1.23;0.43;;;39.40;24.60;;;;;;5030966;28;20496;-82
2022/07/14 12:17:55;;;;;;;1.45;0.45;;;40.50;21.70;;;;;;5051641;22;20072;-78
2022/07/14 12:20:22;;;;;;;0.75;0.47;;;39.50;21.00;;;;;;4991205;28;20036;-78
2022/07/14 12:22:55;;;;;;;3.15;0.47;;;39.60;22.90;;;;;;5014502;28;20014;-79
2022/07/14 12:25:31;;;;;;;1.50;0.60;;;41.30;24.10;;;;;;5014500;28;20033;-80
2022/07/14 12:27:59;;;;;;;1.77;0.40;;;41.60;22.60;;;;;;5014431;28;20025;-80
2022/07/14 12:30:42;;;;;;;2.97;0.50;;;41.10;20.70;;;;;;5014482;28;20116;-79
2022/07/14 12:33:08;;;;;;;1.65;0.40;;;39.40;21.20;;;;;;5013978;28;20026;-79
2022/07/14 12:35:34;;;;;;;2.13;0.60;;;37.30;22.10;;;;;;5014028;28;20025;-79
2022/07/14 12:38:00;;;;;;;2.08;0.60;;;36.90;25.20;;;;;;5014200;28;20026;-79
2022/07/14 12:40:26;;;;;;;1.48;0.70;;;38.50;22.60;;;;;;5014257;28;20072;-80
2022/07/14 12:42:52;;;;;;;3.15;0.60;;;39.80;22.50;;;;;;5014219;28;20034;-80
2022/07/14 12:45:17;;;;;;;0.88;0.50;;;40.60;21.80;;;;;;5014095;28;20132;-79
2022/07/14 12:48:02;;;;;;;1.90;0.50;;;41.70;21.70;;;;;;5020163;28;20258;-79
2022/07/14 12:50:29;;;;;;;1.38;0.50;;;42.80;22.20;;;;;;5009602;28;20033;-80
2022/07/14 12:52:58;;;;;;;2.63;0.30;;;42.20;19.90;;;;;;5014392;28;20080;-79
2022/07/14 12:55:58;;;;;;;1.33;0.45;;;42.20;22.20;;;;;;5014126;28;20057;-79
2022/07/14 12:58:28;;;;;;;2.45;0.50;;;42.50;21.30;;;;;;5006623;28;20038;-80
2022/07/14 13:00:53;;;;;;;0.82;0.32;;;43.70;19.90;;;;;;5013801;28;20116;-79
2022/07/14 13:03:20;;;;;;;2.08;0.50;;;43.80;20.20;;;;;;5013758;28;20102;-79